Terminal Aerodrome Forecast
Issued by NWS New Orleans/Baton Rouge, LA

Home | Current Version | Previous Version | Text Only | Print | Product List | Glossary On
Versions: 1 2 3 4 5 6 7 8 9 10 11 12 13 14 15 16 17 18 19 20 21 22 23 24 25 26 27 28 29
000
FTUS44 KLIX 282141 AAA
TAFNEW
TAF AMD
KNEW 282141Z 2822/2918 18016KT P6SM SCT012 OVC080
     FM290300 15009KT P6SM VCSH SCT012 BKN025 BKN050
     FM290800 14007KT P6SM -SHRA VCTS SCT025CB OVC070
     FM291100 16009KT 4SM TSRA SCT025CB OVC040=

USA.gov is the U.S. government's official web portal to all federal, state and local government web resources and services.